シドニー の空港の天気 - METARとTAF

シドニー国際空港 ( YSSY / SYD ) - オーストラリア ニューサウスウェールズ州、Mascot
飛行場実況気象(Metar)
観測時間06/24 19:30 AEST (06/24 09:30 UTC)
風向・風速南南東 5m/s
視程10km以上
天気現象周辺でしゅう雨
全天の4割程度の雲 雲底高度 980m
気温15℃
湿度72%
気圧1031hPa
METARYSSY 240930Z 16009KT 9999 VCSH SCT032 15/10 Q1031 INTER 1000/1230 4000 SHRA BKN015
過去の天気等 Google飛行場航空写真 Wunderground天気予報

過去48時間のMETAR

飛行場予報(TAF)
発表時間: 6/24 15:03 AEST (6/24 05:03 UTC)
予報対象時間: 24日16時 AEST ~ 25日22時 AEST
風向・風速南 7m/s
視程10km以上
天気現象弱いしゅう雨
全天の4割程度の雲 雲底高度 760m
TAF YSSY 240503Z 2406/2512 19014KT 9999 -SHRA SCT025 INTER 2406/2512 4000 SHRA SCT015